createdAt,value
2023-03-24T00:01:43.723Z,48.46
2023-03-24T00:04:10.385Z,48.31
2023-03-24T00:06:37.078Z,48.41
2023-03-24T00:09:04.437Z,48.50
2023-03-24T00:11:34.454Z,48.43
2023-03-24T00:14:02.878Z,48.70
2023-03-24T00:16:29.808Z,48.72
2023-03-24T00:18:56.907Z,48.64
2023-03-24T00:21:25.380Z,48.98
2023-03-24T00:23:55.203Z,48.75
2023-03-24T00:26:22.069Z,48.96
2023-03-24T00:28:49.470Z,48.63
2023-03-24T00:31:17.526Z,49.08
2023-03-24T00:33:50.713Z,48.93
2023-03-24T00:36:20.654Z,49.09
2023-03-24T00:38:48.665Z,49.16
2023-03-24T00:41:17.966Z,49.17
2023-03-24T00:43:44.414Z,49.02
2023-03-24T00:46:13.954Z,49.17
2023-03-24T00:48:42.005Z,49.15
2023-03-24T00:51:10.861Z,49.47
2023-03-24T00:53:43.472Z,49.31
2023-03-24T00:56:11.764Z,49.52
2023-03-24T00:58:38.647Z,49.65
2023-03-24T01:01:06.878Z,49.28
2023-03-24T01:03:35.116Z,49.57
2023-03-24T01:06:03.989Z,49.33
2023-03-24T01:08:30.997Z,49.27
2023-03-24T01:10:57.466Z,49.49
2023-03-24T01:13:28.531Z,49.62
2023-03-24T01:15:56.611Z,49.76
2023-03-24T01:18:24.040Z,49.41
2023-03-24T01:20:51.339Z,49.73
2023-03-24T01:23:23.152Z,50.00
2023-03-24T01:25:51.768Z,49.22
2023-03-24T01:28:23.255Z,49.48
2023-03-24T01:30:49.896Z,48.94
2023-03-24T01:33:16.585Z,49.34
2023-03-24T01:35:43.351Z,49.50
2023-03-24T01:38:11.967Z,49.98
2023-03-24T01:40:40.684Z,49.82
2023-03-24T01:43:15.672Z,49.39
2023-03-24T01:45:58.014Z,50.39
2023-03-24T01:48:31.497Z,50.08
2023-03-24T01:51:03.313Z,49.92
2023-03-24T01:53:32.934Z,50.00
2023-03-24T01:56:02.402Z,50.01
2023-03-24T01:58:32.131Z,50.31
2023-03-24T02:00:58.984Z,50.24
2023-03-24T02:03:29.990Z,50.12
2023-03-24T02:05:57.658Z,50.29
2023-03-24T02:08:40.686Z,50.91
2023-03-24T02:11:07.239Z,50.28
2023-03-24T02:13:33.713Z,50.27
2023-03-24T02:16:28.014Z,50.82
2023-03-24T02:19:17.632Z,50.53
2023-03-24T02:21:55.181Z,50.86
2023-03-24T02:24:36.567Z,50.80
2023-03-24T02:27:27.061Z,50.71
2023-03-24T02:30:14.898Z,51.28
2023-03-24T02:33:18.475Z,51.09
2023-03-24T02:36:15.336Z,50.81
2023-03-24T02:39:24.597Z,50.95
2023-03-24T02:42:02.053Z,50.70
2023-03-24T02:44:49.661Z,51.19
2023-03-24T02:47:26.287Z,51.07
2023-03-24T02:50:29.536Z,51.17
2023-03-24T02:53:09.139Z,51.22
2023-03-24T02:55:55.249Z,51.41
2023-03-24T02:58:32.174Z,50.96
2023-03-24T03:01:18.932Z,51.41
2023-03-24T03:03:50.950Z,51.03
2023-03-24T03:06:26.073Z,50.95
2023-03-24T03:08:55.144Z,50.46
2023-03-24T03:11:21.898Z,50.66
2023-03-24T03:13:57.008Z,51.39
2023-03-24T03:16:34.844Z,50.98
2023-03-24T03:19:06.011Z,50.69
2023-03-24T03:21:39.689Z,50.65
2023-03-24T03:24:11.126Z,50.61
2023-03-24T03:26:38.092Z,50.64
2023-03-24T03:29:11.643Z,50.92
2023-03-24T03:31:44.402Z,51.00
2023-03-24T03:34:30.887Z,50.87
2023-03-24T03:37:07.694Z,50.90
2023-03-24T03:39:41.390Z,50.72
2023-03-24T03:42:07.837Z,50.61
2023-03-24T03:44:34.266Z,50.38
2023-03-24T03:47:00.787Z,50.46
2023-03-24T03:49:27.419Z,50.69
2023-03-24T03:51:55.708Z,50.46
2023-03-24T03:54:25.676Z,50.59
2023-03-24T03:56:52.413Z,50.60
2023-03-24T03:59:36.982Z,50.95
2023-03-24T04:02:42.386Z,50.76
2023-03-24T04:05:26.365Z,50.68
2023-03-24T04:08:19.605Z,50.73
2023-03-24T04:11:22.675Z,50.77
2023-03-24T04:13:55.148Z,50.24
2023-03-24T04:16:58.334Z,50.92
2023-03-24T04:19:55.821Z,51.03
2023-03-24T04:22:40.538Z,50.30
2023-03-24T04:25:35.044Z,51.29
2023-03-24T04:28:26.185Z,51.16
2023-03-24T04:31:25.966Z,51.15
2023-03-24T04:34:05.983Z,51.15
2023-03-24T04:36:42.464Z,51.12
2023-03-24T04:39:17.077Z,51.28
2023-03-24T04:41:45.427Z,50.80
2023-03-24T04:44:12.615Z,50.81
2023-03-24T04:46:39.264Z,51.12
2023-03-24T04:49:06.214Z,51.25
2023-03-24T04:51:33.036Z,51.04
2023-03-24T04:53:59.625Z,51.16
2023-03-24T04:56:34.736Z,52.26
2023-03-24T04:59:01.322Z,51.66
2023-03-24T05:01:30.830Z,51.97
2023-03-24T05:03:58.671Z,51.95
2023-03-24T05:06:26.276Z,52.16
2023-03-24T05:08:52.888Z,52.10
2023-03-24T05:11:20.609Z,52.15
2023-03-24T05:13:47.774Z,52.16
2023-03-24T05:16:14.978Z,52.12
2023-03-24T05:18:41.773Z,51.66
2023-03-24T05:21:08.427Z,51.64
2023-03-24T05:23:35.405Z,51.76
2023-03-24T05:26:02.295Z,51.57
2023-03-24T05:28:28.845Z,51.71
2023-03-24T05:30:55.415Z,51.89
2023-03-24T05:33:22.018Z,51.78
2023-03-24T05:35:48.721Z,51.44
2023-03-24T05:38:15.524Z,51.66
2023-03-24T05:40:41.873Z,51.38
2023-03-24T05:43:08.635Z,51.56
2023-03-24T05:45:35.561Z,51.30
2023-03-24T05:48:01.972Z,51.31
2023-03-24T05:50:28.390Z,51.37
2023-03-24T05:52:54.737Z,51.03
2023-03-24T05:55:22.115Z,51.01
2023-03-24T05:57:48.499Z,51.14
2023-03-24T06:00:18.368Z,50.86
2023-03-24T06:02:45.937Z,50.91
2023-03-24T06:05:13.320Z,50.82
2023-03-24T06:07:42.357Z,50.83
2023-03-24T06:10:11.380Z,50.89
2023-03-24T06:12:38.835Z,50.19
2023-03-24T06:15:05.774Z,49.94
2023-03-24T06:17:32.220Z,50.06
2023-03-24T06:20:06.005Z,49.55
2023-03-24T06:22:33.724Z,49.51
2023-03-24T06:25:00.280Z,49.37
2023-03-24T06:27:30.211Z,49.04
2023-03-24T06:30:00.313Z,48.06
2023-03-24T06:32:27.257Z,48.45
2023-03-24T06:34:53.958Z,48.19
2023-03-24T06:37:23.635Z,47.59
2023-03-24T06:39:50.598Z,48.01
2023-03-24T06:42:18.687Z,48.08
2023-03-24T06:44:45.413Z,47.46
2023-03-24T06:47:11.794Z,47.10
2023-03-24T06:49:38.138Z,46.94
2023-03-24T06:52:04.829Z,46.97
2023-03-24T06:54:31.488Z,47.06
2023-03-24T06:56:57.930Z,47.06
2023-03-24T06:59:24.650Z,47.27
2023-03-24T07:01:52.260Z,46.87
2023-03-24T07:04:19.442Z,46.83
2023-03-24T07:06:56.674Z,46.69
2023-03-24T07:09:32.653Z,46.52
2023-03-24T07:11:59.260Z,46.26
2023-03-24T07:14:26.431Z,46.50
2023-03-24T07:16:53.734Z,46.62
2023-03-24T07:19:20.722Z,46.20
2023-03-24T07:21:49.988Z,46.59
2023-03-24T07:24:17.939Z,46.52
2023-03-24T07:26:44.774Z,46.50
2023-03-24T07:29:11.693Z,46.25
2023-03-24T07:31:39.539Z,46.40
2023-03-24T07:34:06.365Z,46.59
2023-03-24T07:36:33.070Z,46.28
2023-03-24T07:38:59.392Z,46.56
2023-03-24T07:41:27.620Z,46.28
2023-03-24T07:43:53.995Z,46.31
2023-03-24T07:46:20.409Z,46.85
2023-03-24T07:48:47.375Z,46.79
2023-03-24T07:51:13.930Z,46.73
2023-03-24T07:53:40.484Z,47.00
2023-03-24T07:56:07.959Z,46.74
2023-03-24T07:58:34.403Z,47.02
2023-03-24T08:01:00.767Z,46.95
2023-03-24T08:03:28.525Z,46.97
2023-03-24T08:05:55.380Z,47.07
2023-03-24T08:08:22.270Z,47.40
2023-03-24T08:10:50.463Z,46.83
2023-03-24T08:13:17.026Z,46.65
2023-03-24T08:15:43.589Z,46.28
2023-03-24T08:18:10.244Z,46.29
2023-03-24T08:20:37.038Z,46.27
2023-03-24T08:23:04.817Z,46.09
2023-03-24T08:25:31.481Z,45.99
2023-03-24T08:27:58.058Z,45.98
2023-03-24T08:30:28.724Z,45.96
2023-03-24T08:33:00.080Z,45.22
2023-03-24T08:35:32.842Z,44.87
2023-03-24T08:38:01.001Z,45.48
2023-03-24T08:40:29.229Z,45.15
2023-03-24T08:42:59.809Z,44.37
2023-03-24T08:45:30.490Z,44.68
2023-03-24T08:47:59.416Z,44.92
2023-03-24T08:50:31.729Z,44.79
2023-03-24T08:52:58.672Z,45.02
2023-03-24T08:55:25.636Z,44.88
2023-03-24T08:57:52.444Z,44.89
2023-03-24T09:00:21.250Z,44.84
2023-03-24T09:02:51.702Z,44.82
2023-03-24T09:05:24.595Z,44.55
2023-03-24T09:07:56.510Z,44.36
2023-03-24T09:10:22.825Z,43.90
2023-03-24T09:12:50.350Z,43.69
2023-03-24T09:15:17.127Z,43.41
2023-03-24T09:17:44.036Z,43.54
2023-03-24T09:20:14.372Z,43.13
2023-03-24T09:22:45.589Z,42.81
2023-03-24T09:25:15.407Z,42.83
2023-03-24T09:27:41.963Z,42.72
2023-03-24T09:30:10.125Z,42.54
2023-03-24T09:32:37.342Z,42.51
2023-03-24T09:35:04.341Z,42.64
2023-03-24T09:37:32.004Z,42.69
2023-03-24T09:40:02.503Z,42.79
2023-03-24T09:42:32.907Z,42.10
2023-03-24T09:45:05.074Z,42.16
2023-03-24T09:47:37.756Z,41.78
2023-03-24T09:50:16.149Z,41.67
2023-03-24T09:52:47.706Z,41.74
2023-03-24T09:55:22.548Z,41.34
2023-03-24T09:57:51.074Z,41.77
2023-03-24T10:00:20.239Z,42.43
2023-03-24T10:02:49.091Z,41.99
2023-03-24T10:05:22.382Z,41.53
2023-03-24T10:08:32.260Z,41.02
2023-03-24T10:11:03.694Z,41.23
2023-03-24T10:13:58.341Z,41.09
2023-03-24T10:19:00.622Z,40.39
2023-03-24T10:21:28.198Z,41.09
2023-03-24T10:24:28.369Z,39.58
2023-03-24T10:27:06.726Z,39.83
2023-03-24T10:29:36.432Z,39.91
2023-03-24T10:32:09.160Z,39.85
2023-03-24T10:34:38.706Z,39.77
2023-03-24T10:37:05.256Z,39.91
2023-03-24T10:39:44.091Z,39.43
2023-03-24T10:42:16.766Z,39.19
2023-03-24T10:44:43.769Z,39.71
2023-03-24T10:47:14.010Z,39.51
2023-03-24T10:49:53.034Z,38.95
2023-03-24T10:52:19.838Z,39.69
2023-03-24T10:55:07.514Z,38.85
2023-03-24T10:57:35.281Z,39.63
2023-03-24T11:00:17.456Z,38.37
2023-03-24T11:02:44.724Z,39.37
2023-03-24T11:05:18.932Z,38.88
2023-03-24T11:07:47.871Z,38.90
2023-03-24T11:10:18.725Z,38.91
2023-03-24T11:12:55.567Z,38.79
2023-03-24T11:15:29.202Z,38.68
2023-03-24T11:18:17.008Z,39.17
2023-03-24T11:20:51.005Z,39.63
2023-03-24T11:23:29.669Z,38.14
2023-03-24T11:26:17.000Z,38.05
2023-03-24T11:28:48.197Z,38.34
2023-03-24T11:31:24.763Z,38.30
2023-03-24T11:34:24.459Z,38.42
2023-03-24T11:37:13.756Z,37.82
2023-03-24T11:39:40.518Z,38.18
2023-03-24T11:42:18.463Z,37.16
2023-03-24T11:44:50.881Z,37.94
2023-03-24T11:47:24.506Z,37.15
2023-03-24T11:50:17.572Z,37.34
2023-03-24T11:53:18.215Z,37.54
2023-03-24T11:55:58.109Z,37.20
2023-03-24T11:58:36.819Z,37.28
2023-03-24T12:01:11.576Z,36.87
2023-03-24T12:03:43.655Z,36.88
2023-03-24T12:06:36.561Z,36.87
2023-03-24T12:09:27.574Z,36.90
2023-03-24T12:11:59.890Z,37.37
2023-03-24T12:15:26.801Z,37.03
2023-03-24T12:18:04.531Z,37.62
2023-03-24T12:20:36.347Z,37.07
2023-03-24T12:23:20.219Z,36.14
2023-03-24T12:26:20.484Z,35.95
2023-03-24T12:29:14.318Z,36.01
2023-03-24T12:32:05.796Z,35.55
2023-03-24T12:34:54.164Z,36.02
2023-03-24T12:37:26.626Z,36.88
2023-03-24T12:40:11.631Z,36.01
2023-03-24T12:42:46.946Z,35.64
2023-03-24T12:45:26.222Z,35.28
2023-03-24T12:48:30.178Z,35.82
2023-03-24T12:51:15.621Z,35.74
2023-03-24T12:54:19.549Z,34.93
2023-03-24T12:56:55.190Z,35.60
2023-03-24T12:59:35.928Z,35.56
2023-03-24T13:02:20.399Z,35.16
2023-03-24T13:04:49.468Z,36.10
2023-03-24T13:07:20.937Z,35.93
2023-03-24T13:09:55.879Z,35.54
2023-03-24T13:12:33.347Z,35.35
2023-03-24T13:15:13.948Z,35.05
2023-03-24T13:18:01.331Z,34.90
2023-03-24T13:20:32.993Z,35.14
2023-03-24T13:23:08.746Z,34.82
2023-03-24T13:25:51.084Z,34.56
2023-03-24T13:28:26.084Z,34.32
2023-03-24T13:30:53.056Z,34.70
2023-03-24T13:33:29.484Z,33.51
2023-03-24T13:36:32.084Z,34.26
2023-03-24T13:39:05.545Z,34.47
2023-03-24T13:41:34.952Z,34.51
2023-03-24T13:44:24.097Z,34.74
2023-03-24T13:47:09.857Z,34.05
2023-03-24T13:49:36.557Z,34.94
2023-03-24T13:52:06.540Z,34.93
2023-03-24T13:54:37.042Z,34.37
2023-03-24T13:57:18.555Z,34.60
2023-03-24T14:00:08.122Z,34.77
2023-03-24T14:02:49.372Z,34.21
2023-03-24T14:05:57.195Z,34.94
2023-03-24T14:08:55.389Z,34.96
2023-03-24T14:11:49.412Z,36.13
2023-03-24T14:14:15.883Z,35.78
2023-03-24T14:17:04.375Z,36.21
2023-03-24T14:19:32.953Z,36.43
2023-03-24T14:22:11.298Z,35.70
2023-03-24T14:24:38.731Z,36.07
2023-03-24T14:27:40.932Z,35.85
2023-03-24T14:30:11.270Z,35.99
2023-03-24T14:32:41.184Z,36.35
2023-03-24T14:35:25.371Z,37.76
2023-03-24T14:37:58.674Z,37.75
2023-03-24T14:40:29.669Z,37.63
2023-03-24T14:43:03.714Z,38.55
2023-03-24T14:45:33.194Z,38.65
2023-03-24T14:48:02.827Z,39.13
2023-03-24T14:50:29.645Z,39.25
2023-03-24T14:53:03.098Z,40.12
2023-03-24T14:55:30.679Z,39.82
2023-03-24T14:58:02.558Z,39.88
2023-03-24T15:00:35.975Z,40.30
2023-03-24T15:03:17.926Z,40.17
2023-03-24T15:05:44.483Z,40.16
2023-03-24T15:08:18.407Z,40.63
2023-03-24T15:10:56.219Z,40.78
2023-03-24T15:13:25.241Z,40.34
2023-03-24T15:15:51.781Z,40.41
2023-03-24T15:18:18.976Z,40.63
2023-03-24T15:20:46.267Z,40.97
2023-03-24T15:23:23.886Z,41.33
2023-03-24T15:25:51.959Z,40.65
2023-03-24T15:28:26.877Z,41.15
2023-03-24T15:30:56.276Z,41.04
2023-03-24T15:33:23.498Z,40.99
2023-03-24T15:35:56.954Z,41.99
2023-03-24T15:38:31.567Z,41.64
2023-03-24T15:41:09.496Z,42.71
2023-03-24T15:43:43.808Z,42.07
2023-03-24T15:46:30.714Z,42.65
2023-03-24T15:48:59.815Z,42.62
2023-03-24T15:51:52.534Z,42.44
2023-03-24T15:54:29.168Z,42.48
2023-03-24T15:57:13.962Z,42.22
2023-03-24T16:00:12.025Z,41.92
2023-03-24T16:02:45.954Z,41.96
2023-03-24T16:05:28.712Z,42.26
2023-03-24T16:08:01.057Z,41.92
2023-03-24T16:10:58.528Z,41.99
2023-03-24T16:13:24.940Z,41.78
2023-03-24T16:16:00.954Z,41.96
2023-03-24T16:18:37.888Z,42.11
2023-03-24T16:21:13.942Z,42.45
2023-03-24T16:23:42.286Z,42.42
2023-03-24T16:26:14.326Z,42.23
2023-03-24T16:28:40.863Z,41.88
2023-03-24T16:31:08.167Z,42.00
2023-03-24T16:33:35.707Z,41.81
2023-03-24T16:36:02.503Z,42.11
2023-03-24T16:38:29.094Z,42.30
2023-03-24T16:40:57.892Z,42.72
2023-03-24T16:43:24.941Z,43.24
2023-03-24T16:45:51.688Z,43.45
2023-03-24T16:48:18.745Z,43.53
2023-03-24T16:50:50.087Z,44.14
2023-03-24T16:53:21.178Z,43.64
2023-03-24T16:55:47.774Z,43.44
2023-03-24T16:58:19.076Z,43.46
2023-03-24T17:00:46.010Z,43.38
2023-03-24T17:03:14.184Z,43.23
2023-03-24T17:05:49.283Z,43.87
2023-03-24T17:08:18.734Z,43.52
2023-03-24T17:10:48.064Z,43.58
2023-03-24T17:13:18.727Z,43.90
2023-03-24T17:15:45.471Z,43.95
2023-03-24T17:18:11.913Z,44.06
2023-03-24T17:20:41.530Z,43.92
2023-03-24T17:23:11.533Z,44.16
2023-03-24T17:25:38.184Z,44.26
2023-03-24T17:28:12.237Z,44.21
2023-03-24T17:30:38.566Z,44.25
2023-03-24T17:33:05.791Z,44.34
2023-03-24T17:35:33.640Z,44.64
2023-03-24T17:38:00.252Z,44.46
2023-03-24T17:40:26.643Z,44.59
2023-03-24T17:42:52.972Z,44.66
2023-03-24T17:45:19.655Z,44.73
2023-03-24T17:47:46.736Z,44.43
2023-03-24T17:50:13.804Z,44.81
2023-03-24T17:52:44.295Z,44.88
2023-03-24T17:55:11.954Z,44.51
2023-03-24T17:57:38.848Z,44.56
2023-03-24T18:00:08.311Z,44.50
2023-03-24T18:02:35.060Z,44.26
2023-03-24T18:05:01.484Z,44.41
2023-03-24T18:07:27.912Z,44.57
2023-03-24T18:09:54.563Z,44.84
2023-03-24T18:12:23.769Z,44.92
2023-03-24T18:14:50.420Z,44.69
2023-03-24T18:17:17.118Z,44.71
2023-03-24T18:19:43.505Z,44.83
2023-03-24T18:22:10.029Z,44.69
2023-03-24T18:24:37.983Z,44.89
2023-03-24T18:27:06.062Z,44.76
2023-03-24T18:29:32.744Z,44.51
2023-03-24T18:31:59.305Z,45.05
2023-03-24T18:34:28.530Z,44.77
2023-03-24T18:36:55.290Z,45.04
2023-03-24T18:39:22.775Z,44.84
2023-03-24T18:41:53.183Z,45.03
2023-03-24T18:44:21.649Z,45.31
2023-03-24T18:46:49.077Z,45.21
2023-03-24T18:49:15.741Z,44.64
2023-03-24T18:51:43.338Z,44.82
2023-03-24T18:54:12.645Z,44.90
2023-03-24T18:56:39.188Z,44.88
2023-03-24T18:59:05.688Z,45.24
2023-03-24T19:01:33.374Z,45.04
2023-03-24T19:04:00.219Z,44.91
2023-03-24T19:06:30.880Z,45.15
2023-03-24T19:08:58.993Z,44.96
2023-03-24T19:11:26.167Z,44.83
2023-03-24T19:13:54.790Z,44.91
2023-03-24T19:16:21.439Z,45.46
2023-03-24T19:18:48.684Z,45.01
2023-03-24T19:21:17.063Z,44.71
2023-03-24T19:23:43.985Z,44.69
2023-03-24T19:26:11.058Z,44.62
2023-03-24T19:28:37.761Z,45.13
2023-03-24T19:31:09.650Z,45.11
2023-03-24T19:33:37.221Z,44.81
2023-03-24T19:36:05.724Z,44.83
2023-03-24T19:38:32.415Z,45.24
2023-03-24T19:41:04.030Z,44.46
2023-03-24T19:43:30.604Z,44.77
2023-03-24T19:45:56.957Z,44.87
2023-03-24T19:48:23.712Z,44.56
2023-03-24T19:50:52.724Z,44.71
2023-03-24T19:53:20.606Z,44.61
2023-03-24T19:55:47.308Z,45.14
2023-03-24T19:58:14.630Z,44.63
2023-03-24T20:00:41.239Z,44.79
2023-03-24T20:03:07.911Z,44.45
2023-03-24T20:05:35.435Z,44.93
2023-03-24T20:08:02.388Z,44.62
2023-03-24T20:10:29.308Z,45.08
2023-03-24T20:12:55.971Z,44.79
2023-03-24T20:15:22.693Z,45.07
2023-03-24T20:17:49.168Z,44.79
2023-03-24T20:20:15.638Z,44.75
2023-03-24T20:22:45.522Z,44.46
2023-03-24T20:25:14.136Z,44.71
2023-03-24T20:27:40.572Z,44.41
2023-03-24T20:30:08.256Z,44.58
2023-03-24T20:32:35.440Z,44.42
2023-03-24T20:35:02.079Z,44.07
2023-03-24T20:37:30.497Z,44.26
2023-03-24T20:39:56.863Z,44.43
2023-03-24T20:42:24.604Z,44.60
2023-03-24T20:44:50.943Z,44.31
2023-03-24T20:47:19.399Z,44.25
2023-03-24T20:49:46.243Z,44.46
2023-03-24T20:52:14.460Z,44.10
2023-03-24T20:54:41.595Z,44.10
2023-03-24T20:57:11.976Z,44.21
2023-03-24T20:59:39.276Z,44.29
2023-03-24T21:02:06.901Z,44.27
2023-03-24T21:04:33.799Z,44.31
2023-03-24T21:07:00.317Z,43.91
2023-03-24T21:09:27.560Z,44.18
2023-03-24T21:11:54.210Z,44.36
2023-03-24T21:14:21.116Z,43.84
2023-03-24T21:16:48.092Z,44.52
2023-03-24T21:19:14.629Z,44.29
2023-03-24T21:21:42.793Z,44.47
2023-03-24T21:24:10.236Z,44.59
2023-03-24T21:26:36.920Z,44.36
2023-03-24T21:29:03.283Z,44.65
2023-03-24T21:31:30.114Z,44.30
2023-03-24T21:33:57.098Z,44.30
2023-03-24T21:36:29.892Z,44.39
2023-03-24T21:38:57.409Z,44.35
2023-03-24T21:41:25.569Z,44.48
2023-03-24T21:43:53.883Z,44.26
2023-03-24T21:46:25.785Z,44.16
2023-03-24T21:48:55.942Z,44.29
2023-03-24T21:51:25.205Z,44.28
2023-03-24T21:53:59.501Z,44.29
2023-03-24T21:56:25.942Z,44.24
2023-03-24T21:58:54.699Z,44.19
2023-03-24T22:01:22.520Z,44.43
2023-03-24T22:03:50.577Z,44.47
2023-03-24T22:06:17.379Z,44.34
2023-03-24T22:08:44.233Z,44.41
2023-03-24T22:11:11.523Z,44.22
2023-03-24T22:13:39.398Z,43.94
2023-03-24T22:16:07.172Z,44.30
2023-03-24T22:18:34.639Z,43.72
2023-03-24T22:21:04.882Z,44.25
2023-03-24T22:23:33.474Z,44.25
2023-03-24T22:26:04.115Z,43.82
2023-03-24T22:28:32.275Z,43.86
2023-03-24T22:31:10.377Z,43.59
2023-03-24T22:33:37.266Z,43.73
2023-03-24T22:36:04.598Z,43.82
2023-03-24T22:38:32.058Z,43.87
2023-03-24T22:41:00.887Z,43.87
2023-03-24T22:43:29.473Z,43.78
2023-03-24T22:45:56.216Z,43.99
2023-03-24T22:48:23.644Z,43.49
2023-03-24T22:50:50.982Z,43.13
2023-03-24T22:53:17.541Z,43.26
2023-03-24T22:55:44.849Z,43.36
2023-03-24T22:58:16.036Z,43.66
2023-03-24T23:00:44.340Z,43.75
2023-03-24T23:03:11.528Z,43.69
2023-03-24T23:05:46.200Z,43.40
2023-03-24T23:08:15.050Z,43.48
2023-03-24T23:10:44.320Z,43.69
2023-03-24T23:13:11.755Z,43.25
2023-03-24T23:15:39.609Z,43.50
2023-03-24T23:18:06.123Z,43.32
2023-03-24T23:20:33.010Z,43.40
2023-03-24T23:22:59.455Z,43.66
2023-03-24T23:25:25.967Z,43.30
2023-03-24T23:27:52.589Z,43.49
2023-03-24T23:30:19.677Z,43.46
2023-03-24T23:32:47.126Z,43.20
2023-03-24T23:35:14.390Z,43.02
2023-03-24T23:37:41.439Z,43.24
2023-03-24T23:40:12.937Z,43.52
2023-03-24T23:42:45.265Z,43.24
2023-03-24T23:45:17.987Z,43.18
2023-03-24T23:47:50.305Z,43.49
2023-03-24T23:50:18.303Z,43.48
2023-03-24T23:52:45.354Z,43.80
2023-03-24T23:55:14.268Z,43.90
2023-03-24T23:57:42.243Z,43.98
